Ozark Regional Airport
KBPK : now visible

Airfield :











YOU CAN JOIN US ON...

 
LOGIN :

Register | Disclaimer

   EN    FR    IT 

 









Legend :    VFR   Marginal VFR   IFR   Intensive IFR   Very Intensive IFR
Visi :
Ceiling :
>= 8 km
>= 3000ft
5 to 8 km
1000 to 3000 ft
1500m to 5 km
500 to 1000 ft
800 to 1500m
200 to 500 ft
< 800m
< 200 ft
Symbols :   Thunderstorms  Fog  Heavy snow  Heavy precipitations  Wind > 20 kt






- Airport Elevation : 928 ft


KBPK - Ozark Regional

CURRENT METAR :
  • 010153Z AUTO 00000KT 10SM CLR 12/01 A2996 RMK AO2 SLP145 T01220006 $

EXPIRED METARs :
  • 010053Z AUTO 00000KT 10SM CLR 14/00 A2995 RMK AO2 SLP141 T01440000 $
  • 312353Z AUTO VRB04KT 10SM CLR 18/01 A2995 RMK AO2 SLP140 T01780006 10194 20144 $

TAF KBPK
Valid from the 01 at 00:00 until the 02 at 00:00 UTC


312334Z 0100/0124 32007KT P6SM SKC
FM010900 VRB03KT 6SM BR SKC
FM011300 13005KT P6SM SKC
FM012200 15006KT P6SM SCT120 BKN250



MET'MAP, your aeronautical weather chart ! - Copyright ORBIFLY December 2007 - Disclaimer

ORBIFLY MET'MAP TEAM :

Programming & Development : Alexandra Zaïnal
Concept & original design : Baudouin d'Aumeries
Assistance for programming : Marc-Olivier Méhu
Technical & hardware support : Manuel Goepfert

Contact : metmap@orbifly.com




SOURCES & CREDITS :

   NOAA       Earth
Advisory